createdAt,value
2018-04-12T00:00:49.864Z,11.90
2018-04-12T00:01:49.804Z,11.40
2018-04-12T00:02:49.685Z,11.30
2018-04-12T00:03:49.723Z,11.20
2018-04-12T00:04:49.512Z,12.70
2018-04-12T00:05:49.588Z,12.00
2018-04-12T00:06:49.372Z,11.40
2018-04-12T00:09:31.557Z,11.90
2018-04-12T00:10:31.533Z,12.10
2018-04-12T00:11:31.411Z,13.10
2018-04-12T00:12:31.445Z,12.50
2018-04-12T00:13:31.247Z,12.50
2018-04-12T00:14:31.250Z,12.20
2018-04-12T00:15:31.071Z,12.50
2018-04-12T00:16:31.101Z,12.40
2018-04-12T00:17:30.918Z,12.10
2018-04-12T00:18:30.973Z,13.10
2018-04-12T00:19:30.766Z,13.60
2018-04-12T00:20:30.781Z,13.30
2018-04-12T00:21:30.621Z,17.40
2018-04-12T00:22:30.595Z,17.40
2018-04-12T00:23:30.446Z,16.50
2018-04-12T00:24:30.399Z,14.90
2018-04-12T00:25:30.280Z,14.80
2018-04-12T00:26:30.340Z,13.80
2018-04-12T00:27:30.124Z,15.80
2018-04-12T00:28:30.117Z,23.70
2018-04-12T00:29:29.960Z,18.90
2018-04-12T00:30:29.922Z,18.90
2018-04-12T00:31:29.807Z,20.70
2018-04-12T00:32:29.863Z,19.40
2018-04-12T00:33:29.648Z,22.70
2018-04-12T00:34:29.644Z,21.90
2018-04-12T00:35:29.517Z,22.80
2018-04-12T00:36:29.454Z,24.60
2018-04-12T00:37:29.344Z,27.30
2018-04-12T00:38:29.371Z,28.90
2018-04-12T00:39:29.160Z,26.60
2018-04-12T00:40:29.174Z,25.70
2018-04-12T00:41:29.020Z,24.80
2018-04-12T00:42:29.013Z,26.20
2018-04-12T00:43:28.845Z,25.10
2018-04-12T00:44:28.887Z,28.50
2018-04-12T00:45:28.683Z,29.80
2018-04-12T00:46:28.700Z,34.50
2018-04-12T00:47:28.573Z,35.60
2018-04-12T00:48:28.507Z,36.10
2018-04-12T00:49:28.365Z,36.60
2018-04-12T00:50:28.431Z,38.00
2018-04-12T00:51:28.216Z,38.30
2018-04-12T00:52:28.268Z,41.20
2018-04-12T00:53:28.065Z,42.90
2018-04-12T00:54:28.041Z,43.20
2018-04-12T00:55:27.895Z,42.70
2018-04-12T00:56:27.842Z,44.20
2018-04-12T00:57:27.732Z,46.50
2018-04-12T00:58:27.783Z,44.60
2018-04-12T00:59:27.573Z,47.10
2018-04-12T01:00:27.586Z,46.70
2018-04-12T01:01:27.413Z,46.60
2018-04-12T01:02:27.370Z,47.60
2018-04-12T01:03:27.288Z,47.90
2018-04-12T01:04:27.411Z,48.80
2018-04-12T01:05:27.096Z,49.30
2018-04-12T01:06:27.613Z,49.20
2018-04-12T01:07:26.948Z,48.20
2018-04-12T01:08:26.930Z,47.90
2018-04-12T01:09:26.778Z,48.20
2018-04-12T01:10:26.815Z,49.50
2018-04-12T01:11:26.638Z,50.40
2018-04-12T01:12:26.623Z,48.40
2018-04-12T01:13:26.489Z,51.70
2018-04-12T01:14:26.660Z,52.90
2018-04-12T01:15:26.304Z,53.10
2018-04-12T01:16:26.339Z,51.10
2018-04-12T01:17:26.146Z,50.00
2018-04-12T01:18:26.143Z,53.60
2018-04-12T01:19:26.014Z,52.80
2018-04-12T01:22:08.068Z,52.00
2018-04-12T01:23:08.057Z,53.00
2018-04-12T01:24:07.917Z,53.70
2018-04-12T01:25:07.908Z,53.80
2018-04-12T01:26:07.756Z,53.50
2018-04-12T01:27:07.780Z,53.80
2018-04-12T01:28:07.595Z,52.80
2018-04-12T01:29:07.536Z,53.50
2018-04-12T01:30:07.449Z,53.00
2018-04-12T01:31:07.394Z,53.80
2018-04-12T01:32:07.283Z,54.30
2018-04-12T01:33:07.307Z,54.20
2018-04-12T01:34:07.123Z,54.50
2018-04-12T01:35:07.142Z,55.10
2018-04-12T01:36:06.956Z,54.90
2018-04-12T01:37:06.920Z,54.50
2018-04-12T01:38:06.802Z,54.50
2018-04-12T01:39:06.835Z,55.80
2018-04-12T01:40:06.677Z,57.00
2018-04-12T01:41:06.666Z,56.40
2018-04-12T01:42:06.490Z,54.90
2018-04-12T01:43:06.450Z,55.60
2018-04-12T01:44:06.376Z,56.80
2018-04-12T01:45:06.403Z,55.80
2018-04-12T01:46:06.169Z,59.40
2018-04-12T01:47:06.193Z,57.80
2018-04-12T01:48:06.013Z,58.80
2018-04-12T01:49:05.976Z,57.90
2018-04-12T01:50:05.861Z,56.90
2018-04-12T01:51:05.890Z,55.60
2018-04-12T01:52:05.686Z,59.00
2018-04-12T01:53:05.693Z,59.60
2018-04-12T01:54:05.525Z,59.90
2018-04-12T01:55:05.550Z,58.70
2018-04-12T01:56:05.367Z,58.10
2018-04-12T01:57:05.432Z,58.40
2018-04-12T01:58:05.210Z,62.00
2018-04-12T01:59:05.233Z,60.90
2018-04-12T02:00:05.078Z,60.10
2018-04-12T02:01:05.082Z,60.80
2018-04-12T02:02:04.912Z,61.00
2018-04-12T02:03:04.945Z,62.20
2018-04-12T02:04:04.732Z,63.20
2018-04-12T02:05:04.751Z,62.10
2018-04-12T02:06:04.600Z,63.00
2018-04-12T02:07:04.664Z,61.40
2018-04-12T02:08:04.423Z,62.20
2018-04-12T02:09:04.366Z,62.90
2018-04-12T02:10:04.270Z,66.20
2018-04-12T02:11:04.325Z,66.60
2018-04-12T02:12:04.098Z,64.70
2018-04-12T02:13:04.083Z,66.70
2018-04-12T02:14:03.938Z,65.90
2018-04-12T02:15:03.893Z,63.90
2018-04-12T02:16:03.792Z,65.80
2018-04-12T02:17:03.809Z,64.60
2018-04-12T02:18:03.626Z,65.50
2018-04-12T02:19:03.623Z,66.50
2018-04-12T02:20:03.479Z,67.60
2018-04-12T02:21:03.492Z,67.70
2018-04-12T02:22:03.322Z,68.00
2018-04-12T02:23:03.338Z,70.80
2018-04-12T02:24:03.139Z,69.10
2018-04-12T02:25:03.139Z,70.80
2018-04-12T02:26:03.002Z,73.50
2018-04-12T02:27:02.993Z,70.50
2018-04-12T02:28:02.821Z,71.40
2018-04-12T02:29:02.858Z,76.00
2018-04-12T02:30:02.663Z,74.40
2018-04-12T02:31:02.674Z,75.40
2018-04-12T02:32:02.523Z,76.70
2018-04-12T02:33:02.453Z,75.50
2018-04-12T02:34:02.340Z,75.40
2018-04-12T02:35:02.483Z,77.60
2018-04-12T02:36:02.185Z,77.30
2018-04-12T02:37:02.229Z,81.00
2018-04-12T02:38:02.021Z,84.50
2018-04-12T02:39:02.007Z,84.00
2018-04-12T02:40:01.867Z,83.80
2018-04-12T02:41:01.920Z,83.30
2018-04-12T02:42:01.708Z,83.80
2018-04-12T02:43:01.872Z,83.90
2018-04-12T02:44:01.543Z,85.70
2018-04-12T02:45:01.544Z,85.00
2018-04-12T02:46:01.389Z,86.10
2018-04-12T02:47:01.354Z,87.50
2018-04-12T02:48:01.251Z,83.50
2018-04-12T02:49:01.262Z,86.30
2018-04-12T02:50:01.073Z,85.60
2018-04-12T02:51:01.064Z,86.40
2018-04-12T02:52:00.912Z,85.20
2018-04-12T02:53:00.907Z,85.10
2018-04-12T02:54:00.770Z,84.50
2018-04-12T02:55:00.782Z,88.00
2018-04-12T02:56:00.596Z,85.40
2018-04-12T02:57:00.592Z,87.20
2018-04-12T02:58:00.451Z,83.20
2018-04-12T02:59:00.428Z,87.40
2018-04-12T03:00:00.264Z,84.90
2018-04-12T03:01:00.311Z,87.40
2018-04-12T03:02:00.122Z,85.40
2018-04-12T03:03:00.124Z,88.50
2018-04-12T03:03:59.984Z,87.40
2018-04-12T03:04:59.926Z,85.80
2018-04-12T03:05:59.797Z,85.00
2018-04-12T03:06:59.842Z,85.60
2018-04-12T03:07:59.640Z,88.80
2018-04-12T03:08:59.687Z,87.60
2018-04-12T03:09:59.470Z,85.00
2018-04-12T03:10:59.457Z,89.00
2018-04-12T03:11:59.316Z,87.90
2018-04-12T03:12:59.360Z,91.50
2018-04-12T03:13:59.170Z,92.70
2018-04-12T03:14:59.168Z,93.30
2018-04-12T03:15:59.023Z,92.70
2018-04-12T03:16:58.983Z,94.20
2018-04-12T03:17:58.840Z,93.00
2018-04-12T03:18:58.923Z,92.60
2018-04-12T03:19:58.670Z,89.60
2018-04-12T03:20:58.731Z,92.40
2018-04-12T03:21:58.524Z,94.10
2018-04-12T03:22:58.506Z,93.80
2018-04-12T03:23:58.365Z,94.80
2018-04-12T03:24:58.355Z,92.70
2018-04-12T03:25:58.238Z,92.90
2018-04-12T03:26:58.222Z,93.40
2018-04-12T03:27:58.041Z,92.40
2018-04-12T03:28:58.039Z,88.20
2018-04-12T03:29:57.898Z,87.50
2018-04-12T03:30:57.841Z,87.80
2018-04-12T03:31:57.722Z,88.00
2018-04-12T03:32:57.749Z,88.90
2018-04-12T03:33:57.568Z,90.80
2018-04-12T03:34:57.598Z,91.20
2018-04-12T03:35:57.407Z,92.20
2018-04-12T03:36:57.365Z,91.40
2018-04-12T03:37:57.248Z,90.80
2018-04-12T03:38:57.281Z,91.50
2018-04-12T03:39:57.115Z,89.00
2018-04-12T03:40:57.005Z,90.00
2018-04-12T03:41:56.982Z,93.10
2018-04-12T03:42:56.896Z,92.40
2018-04-12T03:43:56.766Z,88.80
2018-04-12T03:44:56.735Z,87.60
2018-04-12T03:45:56.600Z,90.40
2018-04-12T03:46:56.614Z,89.80
2018-04-12T03:47:56.442Z,89.40
2018-04-12T03:48:56.424Z,91.80
2018-04-12T03:49:56.306Z,87.70
2018-04-12T03:50:56.335Z,89.90
2018-04-12T03:51:56.150Z,91.30
2018-04-12T03:52:56.146Z,89.90
2018-04-12T03:53:55.972Z,88.60
2018-04-12T03:54:55.961Z,89.70
2018-04-12T03:55:55.821Z,88.40
2018-04-12T03:56:55.766Z,90.50
2018-04-12T03:57:55.656Z,87.10
2018-04-12T03:58:55.707Z,89.70
2018-04-12T03:59:55.487Z,91.30
2018-04-12T04:00:55.522Z,92.90
2018-04-12T04:01:55.331Z,92.90
2018-04-12T04:02:55.290Z,92.40
2018-04-12T04:03:55.174Z,91.40
2018-04-12T04:04:55.226Z,94.20
2018-04-12T04:05:55.025Z,89.40
2018-04-12T04:06:55.007Z,91.40
2018-04-12T04:07:54.845Z,87.90
2018-04-12T04:08:54.814Z,91.20
2018-04-12T04:09:54.709Z,88.00
2018-04-12T04:10:54.661Z,91.10
2018-04-12T04:11:54.530Z,86.60
2018-04-12T04:12:54.533Z,86.80
2018-04-12T04:13:54.376Z,85.50
2018-04-12T04:14:54.348Z,83.90
2018-04-12T04:15:54.231Z,87.50
2018-04-12T04:16:54.259Z,87.60
2018-04-12T04:17:54.186Z,86.50
2018-04-12T04:18:54.076Z,86.10
2018-04-12T04:19:53.891Z,85.80
2018-04-12T04:20:54.020Z,84.40
2018-04-12T04:21:53.730Z,87.50
2018-04-12T04:22:53.778Z,86.20
2018-04-12T04:23:53.578Z,87.20
2018-04-12T04:24:53.513Z,84.00
2018-04-12T04:25:53.430Z,99.30
2018-04-12T04:26:53.397Z,97.80
2018-04-12T04:27:53.248Z,112.20
2018-04-12T04:28:53.196Z,100.10
2018-04-12T04:29:53.097Z,124.50
2018-04-12T04:30:53.169Z,94.20
2018-04-12T04:31:52.953Z,86.90
2018-04-12T04:32:52.965Z,83.90
2018-04-12T04:33:52.779Z,84.40
2018-04-12T04:34:52.739Z,82.50
2018-04-12T04:35:52.612Z,84.10
2018-04-12T04:36:52.645Z,82.80
2018-04-12T04:37:52.479Z,82.40
2018-04-12T04:38:52.397Z,82.20
2018-04-12T04:39:52.336Z,81.60
2018-04-12T04:40:52.268Z,80.20
2018-04-12T04:41:52.156Z,80.50
2018-04-12T04:42:52.198Z,80.90
2018-04-12T04:43:51.973Z,80.10
2018-04-12T04:44:52.060Z,78.60
2018-04-12T04:45:51.817Z,80.70
2018-04-12T04:46:51.880Z,78.90
2018-04-12T04:47:51.805Z,81.30
2018-04-12T04:48:51.702Z,78.70
2018-04-12T04:49:51.502Z,77.00
2018-04-12T04:50:51.918Z,77.30
2018-04-12T04:51:51.370Z,76.10
2018-04-12T04:52:51.370Z,73.80
2018-04-12T04:53:51.173Z,74.70
2018-04-12T04:54:51.226Z,112.50
2018-04-12T04:55:51.025Z,76.80
2018-04-12T04:56:51.038Z,73.60
2018-04-12T04:57:50.862Z,73.30
2018-04-12T04:58:50.875Z,72.00
2018-04-12T04:59:50.704Z,74.60
2018-04-12T05:00:50.655Z,75.10
2018-04-12T05:01:50.542Z,73.00
2018-04-12T05:02:50.592Z,72.70
2018-04-12T05:03:50.405Z,72.40
2018-04-12T05:04:50.376Z,72.90
2018-04-12T05:05:50.227Z,70.80
2018-04-12T05:06:50.177Z,70.80
2018-04-12T05:07:50.068Z,71.90
2018-04-12T05:08:50.141Z,69.80
2018-04-12T05:09:49.919Z,70.20
2018-04-12T05:10:49.930Z,69.30
2018-04-12T05:11:49.735Z,68.50
2018-04-12T05:12:49.677Z,68.10
2018-04-12T05:13:49.602Z,68.60
2018-04-12T05:14:49.625Z,70.50
2018-04-12T05:15:49.423Z,69.10
2018-04-12T05:16:49.431Z,66.70
2018-04-12T05:17:49.262Z,67.20
2018-04-12T05:18:49.268Z,66.10
2018-04-12T05:19:49.105Z,64.00
2018-04-12T05:20:49.042Z,64.80
2018-04-12T05:21:48.937Z,64.00
2018-04-12T05:22:48.949Z,66.00
2018-04-12T05:23:48.832Z,64.90
2018-04-12T05:24:48.766Z,65.70
2018-04-12T05:25:48.656Z,64.50
2018-04-12T05:26:48.686Z,65.20
2018-04-12T05:27:48.510Z,63.00
2018-04-12T05:28:48.523Z,63.60
2018-04-12T05:29:48.323Z,64.60
2018-04-12T05:30:48.328Z,63.20
2018-04-12T05:31:48.148Z,62.20
2018-04-12T05:32:48.099Z,62.70
2018-04-12T05:33:48.012Z,62.60
2018-04-12T05:34:48.002Z,60.20
2018-04-12T05:35:47.829Z,59.90
2018-04-12T05:36:47.818Z,59.50
2018-04-12T05:37:47.671Z,57.50
2018-04-12T05:38:47.658Z,59.20
2018-04-12T05:39:47.512Z,59.50
2018-04-12T05:40:47.546Z,60.80
2018-04-12T05:41:47.367Z,59.50
2018-04-12T05:42:47.348Z,59.30
2018-04-12T05:43:47.242Z,58.60
2018-04-12T05:44:47.187Z,58.90
2018-04-12T05:45:47.033Z,58.00
2018-04-12T05:46:47.061Z,58.40
2018-04-12T05:47:46.897Z,57.00
2018-04-12T05:48:46.875Z,58.00
2018-04-12T05:49:46.727Z,56.20
2018-04-12T05:50:46.677Z,57.50
2018-04-12T05:51:46.545Z,57.30
2018-04-12T05:52:46.530Z,57.60
2018-04-12T05:53:46.392Z,57.30
2018-04-12T05:54:46.408Z,56.10
2018-04-12T05:55:46.251Z,55.00
2018-04-12T05:56:46.211Z,55.40
2018-04-12T05:57:46.077Z,54.80
2018-04-12T05:58:46.066Z,54.40
2018-04-12T05:59:45.922Z,55.00
2018-04-12T06:00:45.960Z,54.60
2018-04-12T06:01:45.760Z,55.00
2018-04-12T06:02:45.750Z,55.60
2018-04-12T06:03:45.610Z,54.70
2018-04-12T06:04:45.640Z,55.10
2018-04-12T06:05:45.457Z,54.90
2018-04-12T06:06:45.457Z,53.80
2018-04-12T06:07:45.277Z,53.80
2018-04-12T06:08:45.265Z,54.60
2018-04-12T06:09:45.133Z,53.90
2018-04-12T06:10:45.121Z,52.80
2018-04-12T06:11:44.976Z,52.90
2018-04-12T06:12:45.019Z,53.30
2018-04-12T06:13:44.813Z,52.40
2018-04-12T06:14:44.802Z,54.50
2018-04-12T06:15:44.651Z,52.60
2018-04-12T06:16:44.595Z,55.00
2018-04-12T06:17:44.479Z,54.60
2018-04-12T06:18:44.435Z,49.60
2018-04-12T06:19:44.339Z,50.20
2018-04-12T06:20:44.323Z,50.70
2018-04-12T06:21:44.205Z,51.90
2018-04-12T06:22:44.136Z,51.80
2018-04-12T06:23:44.007Z,53.10
2018-04-12T06:24:44.055Z,52.90
2018-04-12T06:25:43.883Z,52.60
2018-04-12T06:26:43.893Z,45.90
2018-04-12T06:27:43.693Z,50.90
2018-04-12T06:28:43.674Z,49.30
2018-04-12T06:29:43.549Z,51.30
2018-04-12T06:30:43.591Z,48.00
2018-04-12T06:31:43.419Z,52.70
2018-04-12T06:32:43.374Z,50.70
2018-04-12T06:33:43.236Z,52.70
2018-04-12T06:34:43.180Z,50.90
2018-04-12T06:35:43.087Z,51.10
2018-04-12T06:36:43.143Z,50.80
2018-04-12T06:37:42.915Z,48.90
2018-04-12T06:38:42.909Z,48.80
2018-04-12T06:39:42.746Z,53.30
2018-04-12T06:40:42.719Z,52.10
2018-04-12T06:41:42.610Z,51.80
2018-04-12T06:42:42.676Z,53.80
2018-04-12T06:43:42.432Z,53.20
2018-04-12T06:44:42.428Z,50.60
2018-04-12T06:45:42.285Z,53.10
2018-04-12T06:46:42.267Z,53.20
2018-04-12T06:47:42.155Z,52.20
2018-04-12T06:48:42.153Z,46.80
2018-04-12T06:49:41.968Z,50.60
2018-04-12T06:50:41.957Z,53.40
2018-04-12T06:51:41.805Z,53.30
2018-04-12T06:52:41.814Z,48.70
2018-04-12T06:53:41.667Z,52.40
2018-04-12T06:54:41.678Z,51.50
2018-04-12T06:55:41.495Z,53.50
2018-04-12T06:56:41.497Z,49.20
2018-04-12T06:57:41.357Z,49.60
2018-04-12T06:58:41.292Z,53.00
2018-04-12T06:59:41.169Z,52.90
2018-04-12T07:00:41.201Z,53.70
2018-04-12T07:01:41.042Z,54.30
2018-04-12T07:02:41.056Z,54.50
2018-04-12T07:03:40.882Z,50.30
2018-04-12T07:04:41.715Z,52.00
2018-04-12T07:05:40.709Z,52.10
2018-04-12T07:06:40.743Z,48.00
2018-04-12T07:07:40.576Z,52.40
2018-04-12T07:08:40.558Z,51.60
2018-04-12T07:09:40.407Z,51.30
2018-04-12T07:10:40.349Z,51.00
2018-04-12T07:11:40.247Z,52.10
2018-04-12T07:12:40.260Z,52.20
2018-04-12T07:13:40.132Z,53.90
2018-04-12T07:14:40.089Z,51.80
2018-04-12T07:15:39.924Z,50.20
2018-04-12T07:16:39.885Z,51.80
2018-04-12T07:17:39.768Z,53.50
2018-04-12T07:18:39.831Z,53.90
2018-04-12T07:19:39.633Z,54.40
2018-04-12T07:20:39.593Z,53.00
2018-04-12T07:21:39.440Z,53.10
2018-04-12T07:22:39.406Z,54.20
2018-04-12T07:23:39.315Z,49.80
2018-04-12T07:24:39.325Z,50.70
2018-04-12T07:25:39.139Z,52.20
2018-04-12T07:26:39.138Z,52.60
2018-04-12T07:27:39.006Z,53.10
2018-04-12T07:28:38.983Z,53.40
2018-04-12T07:29:38.834Z,55.20
2018-04-12T07:30:38.853Z,52.40
2018-04-12T07:31:38.667Z,53.50
2018-04-12T07:32:38.812Z,52.20
2018-04-12T07:33:38.801Z,52.30
2018-04-12T07:34:38.587Z,52.40
2018-04-12T07:35:38.357Z,53.20
2018-04-12T07:36:38.430Z,54.00
2018-04-12T07:37:38.197Z,52.90
2018-04-12T07:38:38.177Z,52.70
2018-04-12T07:39:38.081Z,49.60
2018-04-12T07:40:38.000Z,52.60
2018-04-12T07:41:37.880Z,50.90
2018-04-12T07:44:20.197Z,51.40
2018-04-12T07:45:20.272Z,51.40
2018-04-12T07:46:20.013Z,50.40
2018-04-12T07:47:19.957Z,50.20
2018-04-12T07:48:19.900Z,53.60
2018-04-12T07:49:19.826Z,52.10
2018-04-12T07:50:19.774Z,51.60
2018-04-12T07:51:19.728Z,54.30
2018-04-12T07:52:19.539Z,51.20
2018-04-12T07:53:19.644Z,51.60
2018-04-12T07:54:19.416Z,50.50
2018-04-12T07:55:19.394Z,51.30
2018-04-12T07:56:19.350Z,52.10
2018-04-12T07:57:19.274Z,49.30
2018-04-12T07:58:19.063Z,52.30
2018-04-12T07:59:19.008Z,51.00
2018-04-12T08:00:18.931Z,51.90
2018-04-12T08:01:18.885Z,53.30
2018-04-12T08:02:18.775Z,53.10
2018-04-12T08:03:18.705Z,52.70
2018-04-12T08:04:18.728Z,51.90
2018-04-12T08:05:18.559Z,53.10
2018-04-12T08:06:18.452Z,53.00
2018-04-12T08:07:18.370Z,52.00
2018-04-12T08:08:18.272Z,51.70
2018-04-12T08:09:18.319Z,52.60
2018-04-12T08:10:18.108Z,54.40
2018-04-12T08:11:18.172Z,54.10
2018-04-12T08:12:17.949Z,54.70
2018-04-12T08:13:17.936Z,54.30
2018-04-12T08:14:17.811Z,54.10
2018-04-12T08:15:17.845Z,52.80
2018-04-12T08:16:17.846Z,54.00
2018-04-12T08:17:17.680Z,55.20
2018-04-12T08:18:17.498Z,54.50
2018-04-12T08:19:18.249Z,54.00
2018-04-12T08:20:17.333Z,53.30
2018-04-12T08:21:17.319Z,55.70
2018-04-12T08:22:17.174Z,53.50
2018-04-12T08:23:17.179Z,54.80
2018-04-12T08:24:17.025Z,53.20
2018-04-12T08:25:16.992Z,55.70
2018-04-12T08:26:16.898Z,54.00
2018-04-12T08:27:16.903Z,54.50
2018-04-12T08:28:16.697Z,52.50
2018-04-12T08:29:16.717Z,53.20
2018-04-12T08:30:16.545Z,54.10
2018-04-12T08:31:16.564Z,55.00
2018-04-12T08:32:16.527Z,54.40
2018-04-12T08:33:16.441Z,55.70
2018-04-12T08:34:16.232Z,53.80
2018-04-12T08:35:16.295Z,54.60
2018-04-12T08:36:16.103Z,55.30
2018-04-12T08:37:16.604Z,57.00
2018-04-12T08:38:15.953Z,56.00
2018-04-12T08:40:58.205Z,57.30
2018-04-12T08:41:58.206Z,57.40
2018-04-12T08:42:58.043Z,58.80
2018-04-12T08:43:58.077Z,57.50
2018-04-12T08:44:57.896Z,57.90
2018-04-12T08:45:57.911Z,58.20
2018-04-12T08:46:57.700Z,55.40
2018-04-12T08:47:57.719Z,56.80
2018-04-12T08:48:57.548Z,58.00
2018-04-12T08:49:57.607Z,57.60
2018-04-12T08:50:57.390Z,57.40
2018-04-12T08:51:57.443Z,58.40
2018-04-12T08:52:57.277Z,59.30
2018-04-12T08:53:57.220Z,58.50
2018-04-12T08:54:57.107Z,58.00
2018-04-12T08:55:57.045Z,60.30
2018-04-12T08:56:56.931Z,59.20
2018-04-12T08:57:57.063Z,57.30
2018-04-12T08:58:56.770Z,61.40
2018-04-12T08:59:56.748Z,60.00
2018-04-12T09:00:56.607Z,60.20
2018-04-12T09:01:56.589Z,60.20
2018-04-12T09:02:56.448Z,57.90
2018-04-12T09:03:56.466Z,58.90
2018-04-12T09:04:57.208Z,59.70
2018-04-12T09:05:56.273Z,60.10
2018-04-12T09:06:56.140Z,59.20
2018-04-12T09:07:56.222Z,60.20
2018-04-12T09:08:55.992Z,60.10
2018-04-12T09:09:55.992Z,60.50
2018-04-12T09:10:55.900Z,59.80
2018-04-12T09:11:55.791Z,58.10
2018-04-12T09:12:55.673Z,59.20
2018-04-12T09:13:55.799Z,58.80
2018-04-12T09:14:55.563Z,58.10
2018-04-12T09:15:55.514Z,59.20
2018-04-12T09:16:55.407Z,58.70
2018-04-12T09:17:55.404Z,57.60
2018-04-12T09:18:55.186Z,56.40
2018-04-12T09:19:55.155Z,58.40
2018-04-12T09:20:55.035Z,58.20
2018-04-12T09:21:55.047Z,57.10
2018-04-12T09:22:54.872Z,59.00
2018-04-12T09:23:54.875Z,58.80
2018-04-12T09:24:54.727Z,59.70
2018-04-12T09:25:54.780Z,58.60
2018-04-12T09:26:54.563Z,56.90
2018-04-12T09:27:54.581Z,58.60
2018-04-12T09:28:54.411Z,56.60
2018-04-12T09:29:54.411Z,57.40
2018-04-12T09:30:54.251Z,58.20
2018-04-12T09:31:54.180Z,56.20
2018-04-12T09:32:54.096Z,56.10
2018-04-12T09:33:54.096Z,54.60
2018-04-12T09:34:53.964Z,55.90
2018-04-12T09:35:53.900Z,57.70
2018-04-12T09:36:53.796Z,56.10
2018-04-12T09:37:53.816Z,55.20
2018-04-12T09:38:53.623Z,55.50
2018-04-12T09:39:53.678Z,55.80
2018-04-12T09:40:53.501Z,55.40
2018-04-12T09:41:53.434Z,53.40
2018-04-12T09:42:53.325Z,54.90
2018-04-12T09:43:53.377Z,54.60
2018-04-12T09:44:53.189Z,54.60
2018-04-12T09:45:53.158Z,52.90
2018-04-12T09:46:53.021Z,54.60
2018-04-12T09:47:53.192Z,52.80
2018-04-12T09:48:52.873Z,54.50
2018-04-12T09:49:52.964Z,52.70
2018-04-12T09:50:52.751Z,53.90
2018-04-12T09:51:52.688Z,52.80
2018-04-12T09:52:52.579Z,51.40
2018-04-12T09:53:52.596Z,52.30
2018-04-12T09:54:52.425Z,51.50
2018-04-12T09:55:52.394Z,49.40
2018-04-12T09:56:52.299Z,49.10
2018-04-12T09:57:52.326Z,51.30
2018-04-12T09:58:52.163Z,51.20
2018-04-12T09:59:52.171Z,50.50
2018-04-12T10:00:51.992Z,50.40
2018-04-12T10:01:52.076Z,51.00
2018-04-12T10:02:51.866Z,49.30
2018-04-12T10:03:51.853Z,50.50
2018-04-12T10:04:51.713Z,48.60
2018-04-12T10:05:51.696Z,49.50
2018-04-12T10:06:51.573Z,49.30
2018-04-12T10:07:51.580Z,49.60
2018-04-12T10:08:51.433Z,50.00
2018-04-12T10:09:51.488Z,52.10
2018-04-12T10:10:51.293Z,50.20
2018-04-12T10:11:51.287Z,50.20
2018-04-12T10:12:51.130Z,50.60
2018-04-12T10:13:51.113Z,51.60
2018-04-12T10:14:50.980Z,51.10
2018-04-12T10:15:51.026Z,50.90
2018-04-12T10:16:50.822Z,50.50
2018-04-12T10:17:50.814Z,51.20
2018-04-12T10:18:50.701Z,52.00
2018-04-12T10:19:50.714Z,50.50
2018-04-12T10:20:50.560Z,49.40
2018-04-12T10:21:50.521Z,50.90
2018-04-12T10:22:50.401Z,51.60
2018-04-12T10:23:50.443Z,49.50
2018-04-12T10:24:50.257Z,50.20
2018-04-12T10:25:50.278Z,49.70
2018-04-12T10:26:50.110Z,48.40
2018-04-12T10:27:50.145Z,48.20
2018-04-12T10:28:50.778Z,49.00
2018-04-12T10:29:49.920Z,49.10
2018-04-12T10:30:49.870Z,49.60
2018-04-12T10:31:49.872Z,49.30
2018-04-12T10:32:49.733Z,49.10
2018-04-12T10:33:49.686Z,48.80
2018-04-12T10:34:49.574Z,49.60
2018-04-12T10:35:49.621Z,49.70
2018-04-12T10:36:49.401Z,49.00
2018-04-12T10:37:49.510Z,50.40
2018-04-12T10:38:49.250Z,49.30
2018-04-12T10:39:49.473Z,50.00
2018-04-12T10:40:49.099Z,50.50
2018-04-12T10:41:49.107Z,50.80
2018-04-12T10:42:48.960Z,49.50
2018-04-12T10:43:48.921Z,48.70
2018-04-12T10:44:48.830Z,50.90
2018-04-12T10:45:48.845Z,50.20
2018-04-12T10:46:48.729Z,51.80
2018-04-12T10:47:48.639Z,51.90
2018-04-12T10:48:48.533Z,50.20
2018-04-12T10:49:48.550Z,51.40
2018-04-12T10:50:48.382Z,50.60
2018-04-12T10:51:48.403Z,50.90
2018-04-12T10:52:48.241Z,48.40
2018-04-12T10:53:48.282Z,48.90
2018-04-12T10:54:48.068Z,51.00
2018-04-12T10:55:48.086Z,51.20
2018-04-12T10:56:48.002Z,50.30
2018-04-12T10:57:47.908Z,50.10
2018-04-12T10:58:47.792Z,51.30
2018-04-12T10:59:47.802Z,50.70
2018-04-12T11:00:47.743Z,51.70
2018-04-12T11:01:47.655Z,51.70
2018-04-12T11:02:47.488Z,51.00
2018-04-12T11:03:47.517Z,51.70
2018-04-12T11:04:47.349Z,51.30
2018-04-12T11:05:47.473Z,51.30
2018-04-12T11:06:47.220Z,50.30
2018-04-12T11:07:47.205Z,51.60
2018-04-12T11:08:47.060Z,51.30
2018-04-12T11:09:47.044Z,50.60
2018-04-12T11:10:46.902Z,51.30
2018-04-12T11:11:46.857Z,51.70
2018-04-12T11:12:46.757Z,51.10
2018-04-12T11:13:46.786Z,48.20
2018-04-12T11:14:46.632Z,50.70
2018-04-12T11:15:46.572Z,50.80
2018-04-12T11:16:46.488Z,49.60
2018-04-12T11:17:46.520Z,49.20
2018-04-12T11:18:46.353Z,51.10
2018-04-12T11:19:46.349Z,50.10
2018-04-12T11:20:46.173Z,48.80
2018-04-12T11:21:46.089Z,49.00
2018-04-12T11:22:46.033Z,47.30
2018-04-12T11:23:46.072Z,47.90
2018-04-12T11:24:45.935Z,46.60
2018-04-12T11:25:45.832Z,46.60
2018-04-12T11:26:45.720Z,46.30
2018-04-12T11:27:45.776Z,45.80
2018-04-12T11:28:45.588Z,44.40
2018-04-12T11:29:45.559Z,47.20
2018-04-12T11:30:45.403Z,45.10
2018-04-12T11:31:45.459Z,45.40
2018-04-12T11:32:45.345Z,45.50
2018-04-12T11:33:45.267Z,45.50
2018-04-12T11:34:45.159Z,45.30
2018-04-12T11:35:45.184Z,44.40
2018-04-12T11:36:44.989Z,44.80
2018-04-12T11:37:45.161Z,45.10
2018-04-12T11:38:44.867Z,42.20
2018-04-12T11:39:44.928Z,43.00
2018-04-12T11:40:44.709Z,45.00
2018-04-12T11:41:44.712Z,44.00
2018-04-12T11:42:44.599Z,45.20
2018-04-12T11:43:44.647Z,43.30
2018-04-12T11:44:44.434Z,42.80
2018-04-12T11:45:44.387Z,45.50
2018-04-12T11:46:44.281Z,45.90
2018-04-12T11:49:26.329Z,45.00
2018-04-12T11:50:26.220Z,44.20
2018-04-12T11:51:26.127Z,45.40
2018-04-12T11:52:26.148Z,44.70
2018-04-12T11:53:26.166Z,44.50
2018-04-12T11:54:26.015Z,45.20
2018-04-12T11:55:25.824Z,45.50
2018-04-12T11:56:25.862Z,45.70
2018-04-12T11:57:25.666Z,45.30
2018-04-12T11:58:25.663Z,44.40
2018-04-12T11:59:25.537Z,46.40
2018-04-12T12:00:25.570Z,47.50
2018-04-12T12:01:25.380Z,45.90
2018-04-12T12:02:25.384Z,45.80
2018-04-12T12:03:25.247Z,47.20
2018-04-12T12:04:25.228Z,46.70
2018-04-12T12:05:25.089Z,44.80
2018-04-12T12:06:25.118Z,46.50
2018-04-12T12:07:24.949Z,47.60
2018-04-12T12:08:24.932Z,46.30
2018-04-12T12:09:24.826Z,46.00
2018-04-12T12:10:24.815Z,46.10
2018-04-12T12:11:24.659Z,47.50
2018-04-12T12:12:24.661Z,45.90
2018-04-12T12:13:24.507Z,46.10
2018-04-12T12:14:24.690Z,47.20
2018-04-12T12:15:24.385Z,46.30
2018-04-12T12:16:24.354Z,47.40
2018-04-12T12:17:24.219Z,47.60
2018-04-12T12:18:24.259Z,47.40
2018-04-12T12:19:24.103Z,46.20
2018-04-12T12:20:24.103Z,46.80
2018-04-12T12:21:23.914Z,47.50
2018-04-12T12:22:23.924Z,46.40
2018-04-12T12:23:23.767Z,45.10
2018-04-12T12:24:23.784Z,45.60
2018-04-12T12:25:23.636Z,47.50
2018-04-12T12:26:23.658Z,45.70
2018-04-12T12:27:23.488Z,47.10
2018-04-12T12:28:23.511Z,46.50
2018-04-12T12:29:23.323Z,47.20
2018-04-12T12:30:23.364Z,46.80
2018-04-12T12:31:23.183Z,45.70
2018-04-12T12:32:23.236Z,46.00
2018-04-12T12:33:23.068Z,44.80
2018-04-12T12:34:23.041Z,46.60
2018-04-12T12:35:22.897Z,47.90
2018-04-12T12:36:22.839Z,47.50
2018-04-12T12:37:22.848Z,47.90
2018-04-12T12:38:22.749Z,47.40
2018-04-12T12:39:22.586Z,46.70
2018-04-12T12:40:22.624Z,47.60
2018-04-12T12:41:22.457Z,48.80
2018-04-12T12:42:22.466Z,47.20
2018-04-12T12:43:22.298Z,47.10
2018-04-12T12:44:22.274Z,46.00
2018-04-12T12:45:22.141Z,47.50
2018-04-12T12:46:22.231Z,48.30
2018-04-12T12:47:21.986Z,46.20
2018-04-12T12:48:21.998Z,47.80
2018-04-12T12:49:21.861Z,48.10
2018-04-12T12:50:21.849Z,50.10
2018-04-12T12:51:21.721Z,47.20
2018-04-12T12:52:21.711Z,46.30
2018-04-12T12:53:21.559Z,47.00
2018-04-12T12:54:21.528Z,47.80
2018-04-12T12:55:21.394Z,48.00
2018-04-12T12:56:21.392Z,47.50
2018-04-12T12:57:21.286Z,47.20
2018-04-12T12:58:21.241Z,47.50
2018-04-12T12:59:21.125Z,47.30
2018-04-12T13:00:21.039Z,47.00